Fox Island, WA

7:15 AM PDT on August 29, 2014 (GMT -0700)
Cromwell Beach | Change Station
CLOSE
Current Station
Personal Weather Station
Location: Gig Harbor, WA
Elevation: 15 ft
Nearby Weather Stations

Elev 15 ft 47.27 °N, 122.62 °W | Updated 2 seconds ago

Overcast
Overcast
58.4 °F
Feels Like 58.4 °F
N
3.0
Wind Variable Wind from South
Gusts 4.0 mph

Today
High -- | Low -- °F
--% Chance of Precip.
Yesterday
High -- | Low -- °F
Precip. -- in
6:25 AM 7:56 PM
Waxing Crescent, 14% visible
Pressure 29.99 in
Visibility 10.0 miles
Clouds Overcast 400 ft
Dew Point 56 °F
Humidity 93%
Rainfall 0.00 in
Snow Depth Not available.
UV 0 out of 12
Pollen 2.40 out of 12
PM2.5 Good
Flu Activity Not available.
SPECI KTIW 291409Z AUTO 18005KT 10SM OVC004 14/13 A2999 RMK AO2 T01390128

More Conditions Fewer Conditions

Pressure 29.99 in
Visibility 10.0 miles
Clouds Overcast 400 ft
Dew Point 56 °F
Humidity 93%
Rainfall 0.00 in
Snow Depth Not available.
UV 0 out of 12
Pollen 2.40 out of 12
PM2.5 Good
Flu Activity Not available.
SPECI KTIW 291409Z AUTO 18005KT 10SM OVC004 14/13 A2999 RMK AO2 T01390128

More Conditions Fewer Conditions

10-Day Weather Forecast

Almanac

Astronomy

Aug. 29, 2014 Rise Set
Actual Time 6:25 AM PDT 7:56 PM PDT
Civil Twilight 5:53 AM PDT 8:27 PM PDT
Nautical Twilight 5:14 AM PDT 9:06 PM PDT
Astronomical Twilight 4:32 AM PDT 9:48 PM PDT
Moon 10:38 AM PDT 9:37 PM PDT
Length of Visible Light 14h 34m
Length of Day
13h 30m
Tomorrow will be 3m 16s shorter.
Waxing Crescent, 14% of the Moon is Illuminated
Today
Waxing Crescent
Sep 2
First Quarter
Sep 8
Full
Sep 15
Last Quarter
Sep 24
New

Today's Extremes

State Highs State Lows

Community

WunderPhotos

Upload Photos

1,748,240 photos uploaded!

Nearby

Air Quality

  Air Quality AQ Index Pollutant
Yesterday Good
PM2.5
Current Good
PM2.5
Friday Good
OZONE
Friday Good
PM2.5
Saturday Good
OZONE
Saturday Good
PM2.5

Snow Depth

Station Depth Elevation
Mount Crag 0 in 4050 ft
Dungeness 0 in 4100 ft
Mount Gardner 0 in 3000 ft
Meadows Pass 0 in 3500 ft
Olallie Meadows 3 in 3700 ft

Earthquake Activity

City Distance Mag. Time & Date
No recent earthquake activity has been reported nearby.
Minimum magnitude displayed is 2.5.

Coastal Water Temperatures

Place Temperature
Port Townsend, WA 54.0 °F
Seattle, WA 55.9 °F
Friday Harbor, WA 53.1 °F
Tacoma, WA 55.0 °F

Nearby Weather Stations